05CO weather

Rancho De Aereo Airport
Mead, Colorado, United States

Public forecast

Using degrees Fahrenheit for public forecast. Weather courtesy of forecast.io.

METAR (pilot weather report)

Closest report is Vance Brand Airport, 8.8 nm (16.2 km) WSW. Retrieved 2019/08/21 11:35 UTC (4 minutes ago):

KLMO 211135Z AUTO 12005KT 10SM OVC021 19/15 A3024 RMK AO2 T01940149

TAF (pilot weather forecast)

Closest forecast is Rocky Mountain Metropolitan Airport, 19.4 nm (35.9 km) SSW. Retrieved 2019/08/21 06:30 UTC (5 hours ago):

TAF KBJC 210529Z 2106/2206 24006KT P6SM SCT120 FM210800 36010KT P6SM SCT050 BKN100 FM211100 03008KT P6SM SCT030 BKN100 TEMPO 2111/2115 3SM BR BKN015 FM211500 05010KT P6SM SCT050 BKN080 FM211800 09012G20KT P6SM BKN050 TEMPO 2122/2202 VRB20G35KT -TSRA BKN050CB FM220300 30010KT P6SM BKN060